createdAt,value
2023-04-15T00:00:07.638Z,1.80
2023-04-15T00:02:35.544Z,1.83
2023-04-15T00:05:03.528Z,1.90
2023-04-15T00:07:31.595Z,2.20
2023-04-15T00:10:00.929Z,1.67
2023-04-15T00:12:29.672Z,2.53
2023-04-15T00:14:58.758Z,1.50
2023-04-15T00:17:26.616Z,2.10
2023-04-15T00:19:54.588Z,1.70
2023-04-15T00:22:22.640Z,1.90
2023-04-15T00:24:50.666Z,2.03
2023-04-15T00:27:20.335Z,1.50
2023-04-15T00:29:48.150Z,1.77
2023-04-15T00:32:15.955Z,1.90
2023-04-15T00:34:43.700Z,1.80
2023-04-15T00:37:11.675Z,1.67
2023-04-15T00:39:40.043Z,2.57
2023-04-15T00:42:07.957Z,1.80
2023-04-15T00:44:37.041Z,1.97
2023-04-15T00:47:06.685Z,1.77
2023-04-15T00:49:34.515Z,2.50
2023-04-15T00:52:02.448Z,2.23
2023-04-15T00:54:30.260Z,1.87
2023-04-15T00:56:58.830Z,2.13
2023-04-15T00:59:27.064Z,2.20
2023-04-15T01:01:57.238Z,2.47
2023-04-15T01:04:25.368Z,2.20
2023-04-15T01:06:53.306Z,2.50
2023-04-15T01:09:21.461Z,2.33
2023-04-15T01:11:49.231Z,2.47
2023-04-15T01:14:17.337Z,2.83
2023-04-15T01:16:45.615Z,2.47
2023-04-15T01:19:17.594Z,2.00
2023-04-15T01:21:45.908Z,2.40
2023-04-15T01:24:18.784Z,2.70
2023-04-15T01:26:49.697Z,2.70
2023-04-15T01:29:17.981Z,2.90
2023-04-15T01:31:51.890Z,2.27
2023-04-15T01:34:20.154Z,2.77
2023-04-15T01:36:48.186Z,2.40
2023-04-15T01:39:16.135Z,2.40
2023-04-15T01:41:44.069Z,2.77
2023-04-15T01:44:13.189Z,3.10
2023-04-15T01:46:41.063Z,2.83
2023-04-15T01:49:08.906Z,2.80
2023-04-15T01:51:36.739Z,2.83
2023-04-15T01:54:04.613Z,3.50
2023-04-15T01:56:32.352Z,2.87
2023-04-15T01:59:00.295Z,2.90
2023-04-15T02:01:29.667Z,3.00
2023-04-15T02:03:57.853Z,2.53
2023-04-15T02:06:25.782Z,2.77
2023-04-15T02:08:53.555Z,3.07
2023-04-15T02:11:21.354Z,2.47
2023-04-15T02:13:49.140Z,2.37
2023-04-15T02:16:18.954Z,2.73
2023-04-15T02:18:48.409Z,2.90
2023-04-15T02:21:16.213Z,2.60
2023-04-15T02:23:44.847Z,2.63
2023-04-15T02:26:12.894Z,2.40
2023-04-15T02:28:40.975Z,2.57
2023-04-15T02:31:09.579Z,2.77
2023-04-15T02:33:37.769Z,2.30
2023-04-15T02:36:07.778Z,2.67
2023-04-15T02:38:35.555Z,2.27
2023-04-15T02:41:03.396Z,2.77
2023-04-15T02:43:31.522Z,2.00
2023-04-15T02:45:59.403Z,2.40
2023-04-15T02:48:27.390Z,2.50
2023-04-15T02:50:55.274Z,2.30
2023-04-15T02:53:24.450Z,2.67
2023-04-15T02:55:52.289Z,2.63
2023-04-15T02:58:20.241Z,2.20
2023-04-15T03:00:48.013Z,3.70
2023-04-15T03:03:16.526Z,2.57
2023-04-15T03:05:45.704Z,2.33
2023-04-15T03:08:14.871Z,2.50
2023-04-15T03:10:44.010Z,3.40
2023-04-15T03:13:11.833Z,2.73
2023-04-15T03:15:39.788Z,2.43
2023-04-15T03:18:07.515Z,2.90
2023-04-15T03:20:35.932Z,2.73
2023-04-15T03:23:03.818Z,3.13
2023-04-15T03:25:31.585Z,2.40
2023-04-15T03:28:01.324Z,2.27
2023-04-15T03:30:29.076Z,3.10
2023-04-15T03:32:56.827Z,2.20
2023-04-15T03:35:24.614Z,2.83
2023-04-15T03:37:52.472Z,3.30
2023-04-15T03:40:20.578Z,2.20
2023-04-15T03:42:48.411Z,2.30
2023-04-15T03:45:17.778Z,2.53
2023-04-15T03:47:45.807Z,2.47
2023-04-15T03:50:13.674Z,2.57
2023-04-15T03:52:41.468Z,2.70
2023-04-15T03:55:10.131Z,2.37
2023-04-15T03:57:38.993Z,2.67
2023-04-15T04:00:08.145Z,2.50
2023-04-15T04:02:37.522Z,2.43
2023-04-15T04:05:05.926Z,2.90
2023-04-15T04:07:33.831Z,2.40
2023-04-15T04:10:01.682Z,2.07
2023-04-15T04:12:29.424Z,2.50
2023-04-15T04:14:57.212Z,2.40
2023-04-15T04:17:25.104Z,2.70
2023-04-15T04:19:54.245Z,2.30
2023-04-15T04:22:24.557Z,2.30
2023-04-15T04:24:52.495Z,2.37
2023-04-15T04:27:20.234Z,2.23
2023-04-15T04:29:49.843Z,1.60
2023-04-15T04:32:17.819Z,2.77
2023-04-15T04:34:45.642Z,2.37
2023-04-15T04:37:15.014Z,2.33
2023-04-15T04:39:42.773Z,2.00
2023-04-15T04:42:10.645Z,2.93
2023-04-15T04:44:38.385Z,2.27
2023-04-15T04:47:07.412Z,2.03
2023-04-15T04:49:35.517Z,2.20
2023-04-15T04:52:03.532Z,2.10
2023-04-15T04:54:32.723Z,2.50
2023-04-15T04:57:00.749Z,2.30
2023-04-15T04:59:28.533Z,2.93
2023-04-15T05:01:56.401Z,2.30
2023-04-15T05:04:24.205Z,2.47
2023-04-15T05:06:52.038Z,2.07
2023-04-15T05:09:20.084Z,1.73
2023-04-15T05:11:49.273Z,2.50
2023-04-15T05:14:17.172Z,1.80
2023-04-15T05:16:44.970Z,2.17
2023-04-15T05:19:12.715Z,1.70
2023-04-15T05:21:40.790Z,2.50
2023-04-15T05:24:08.544Z,1.53
2023-04-15T05:26:36.899Z,1.87
2023-04-15T05:29:06.198Z,1.50
2023-04-15T05:31:34.181Z,1.90
2023-04-15T05:34:02.384Z,2.00
2023-04-15T05:36:31.441Z,1.97
2023-04-15T05:38:59.570Z,2.10
2023-04-15T05:41:27.486Z,2.07
2023-04-15T05:43:55.261Z,2.10
2023-04-15T05:46:24.514Z,1.73
2023-04-15T05:48:53.772Z,1.63
2023-04-15T05:51:22.504Z,1.93
2023-04-15T05:53:50.406Z,1.70
2023-04-15T05:56:18.183Z,1.73
2023-04-15T05:58:46.244Z,1.57
2023-04-15T06:01:14.066Z,1.67
2023-04-15T06:03:44.157Z,1.77
2023-04-15T06:06:12.026Z,1.20
2023-04-15T06:08:39.796Z,1.87
2023-04-15T06:11:07.592Z,1.27
2023-04-15T06:13:35.870Z,1.50
2023-04-15T06:16:04.035Z,1.70
2023-04-15T06:18:31.844Z,1.57
2023-04-15T06:21:01.082Z,1.40
2023-04-15T06:23:28.828Z,1.43
2023-04-15T06:25:56.693Z,1.80
2023-04-15T06:28:24.496Z,1.60
2023-04-15T06:30:52.220Z,1.20
2023-04-15T06:33:20.063Z,1.40
2023-04-15T06:35:49.563Z,1.20
2023-04-15T06:38:18.748Z,1.33
2023-04-15T06:40:46.964Z,1.30
2023-04-15T06:43:15.205Z,1.40
2023-04-15T06:45:43.024Z,1.30
2023-04-15T06:48:10.884Z,1.40
2023-04-15T06:50:38.709Z,1.40
2023-04-15T06:53:06.712Z,1.53
2023-04-15T06:55:35.860Z,1.40
2023-04-15T06:58:03.627Z,1.23
2023-04-15T07:00:33.579Z,1.20
2023-04-15T07:03:03.446Z,1.43
2023-04-15T07:05:32.303Z,1.10
2023-04-15T07:08:00.299Z,1.60
2023-04-15T07:10:28.091Z,1.37
2023-04-15T07:12:57.840Z,1.37
2023-04-15T07:15:25.650Z,1.10
2023-04-15T07:17:53.484Z,1.30
2023-04-15T07:20:21.381Z,1.53
2023-04-15T07:22:49.429Z,1.20
2023-04-15T07:25:17.604Z,1.70
2023-04-15T07:27:45.405Z,1.50
2023-04-15T07:30:14.798Z,1.00
2023-04-15T07:32:43.379Z,1.17
2023-04-15T07:35:11.622Z,1.20
2023-04-15T07:37:39.435Z,1.47
2023-04-15T07:40:08.946Z,2.10
2023-04-15T07:42:39.368Z,1.33
2023-04-15T07:45:09.629Z,2.00
2023-04-15T07:47:38.840Z,1.53
2023-04-15T07:50:07.452Z,1.23
2023-04-15T07:52:39.174Z,1.10
2023-04-15T07:55:08.247Z,1.00
2023-04-15T07:57:36.748Z,1.10
2023-04-15T08:00:07.450Z,1.50
2023-04-15T08:02:38.196Z,1.63
2023-04-15T08:05:10.516Z,1.30
2023-04-15T08:07:38.958Z,1.40
2023-04-15T08:10:09.970Z,1.10
2023-04-15T08:12:37.972Z,1.47
2023-04-15T08:15:08.020Z,1.40
2023-04-15T08:17:35.964Z,1.17
2023-04-15T08:20:05.802Z,1.60
2023-04-15T08:22:35.499Z,1.60
2023-04-15T08:25:03.453Z,1.50
2023-04-15T08:27:31.296Z,1.70
2023-04-15T08:29:59.335Z,1.37
2023-04-15T08:32:27.289Z,1.37
2023-04-15T08:34:55.095Z,1.40
2023-04-15T08:37:22.888Z,1.43
2023-04-15T08:39:52.124Z,1.77
2023-04-15T08:42:28.381Z,2.00
2023-04-15T08:44:56.746Z,1.23
2023-04-15T08:47:30.656Z,1.60
2023-04-15T08:49:59.546Z,1.70
2023-04-15T08:52:27.953Z,1.50
2023-04-15T08:54:59.646Z,1.60
2023-04-15T08:57:28.487Z,2.30
2023-04-15T08:59:57.297Z,1.40
2023-04-15T09:02:26.229Z,1.40
2023-04-15T09:04:54.427Z,1.70
2023-04-15T09:07:22.322Z,1.90
2023-04-15T09:09:50.253Z,2.23
2023-04-15T09:12:19.434Z,1.77
2023-04-15T09:14:48.220Z,1.63
2023-04-15T09:17:20.731Z,1.90
2023-04-15T09:19:48.791Z,1.50
2023-04-15T09:22:16.731Z,2.13
2023-04-15T09:24:44.755Z,2.20
2023-04-15T09:27:12.610Z,1.50
2023-04-15T09:29:42.887Z,2.27
2023-04-15T09:32:12.249Z,1.77
2023-04-15T09:34:40.061Z,1.47
2023-04-15T09:37:09.062Z,2.27
2023-04-15T09:39:50.913Z,1.50
2023-04-15T09:42:24.081Z,1.73
2023-04-15T09:44:53.843Z,2.00
2023-04-15T09:47:31.302Z,2.10
2023-04-15T09:50:00.278Z,2.10
2023-04-15T09:52:28.697Z,1.80
2023-04-15T09:55:00.948Z,2.00
2023-04-15T09:57:37.320Z,2.17
2023-04-15T10:00:08.756Z,2.20
2023-04-15T10:02:36.749Z,2.40
2023-04-15T10:05:04.926Z,2.20
2023-04-15T10:07:33.338Z,1.83
2023-04-15T10:10:02.228Z,2.57
2023-04-15T10:12:30.406Z,2.27
2023-04-15T10:15:00.757Z,1.50
2023-04-15T10:17:33.557Z,2.40
2023-04-15T10:20:02.788Z,2.20
2023-04-15T10:22:31.381Z,2.30
2023-04-15T10:25:00.892Z,2.70
2023-04-15T10:27:29.400Z,2.33
2023-04-15T10:29:58.085Z,2.50
2023-04-15T10:32:26.346Z,2.90
2023-04-15T10:34:56.857Z,2.80
2023-04-15T10:37:35.469Z,2.33
2023-04-15T10:40:24.236Z,1.97
2023-04-15T10:42:52.072Z,3.30
2023-04-15T10:45:20.279Z,2.50
2023-04-15T10:47:52.504Z,2.70
2023-04-15T10:50:22.297Z,2.60
2023-04-15T10:52:52.883Z,2.77
2023-04-15T10:55:23.791Z,2.60
2023-04-15T10:57:54.441Z,3.23
2023-04-15T11:00:26.115Z,2.37
2023-04-15T11:02:56.206Z,2.97
2023-04-15T11:05:52.131Z,3.30
2023-04-15T11:08:21.200Z,3.57
2023-04-15T11:10:56.208Z,3.37
2023-04-15T11:13:29.185Z,3.40
2023-04-15T11:16:00.190Z,3.63
2023-04-15T11:18:32.895Z,2.83
2023-04-15T11:21:04.443Z,3.40
2023-04-15T11:23:34.837Z,3.50
2023-04-15T11:26:05.563Z,3.00
2023-04-15T11:28:34.195Z,3.60
2023-04-15T11:31:08.481Z,2.87
2023-04-15T11:33:36.257Z,3.43
2023-04-15T11:36:05.800Z,3.90
2023-04-15T11:38:35.708Z,3.40
2023-04-15T11:41:03.583Z,3.70
2023-04-15T11:43:35.240Z,2.87
2023-04-15T11:46:04.252Z,2.73
2023-04-15T11:48:33.819Z,3.43
2023-04-15T11:51:02.872Z,3.00
2023-04-15T11:53:43.567Z,3.20
2023-04-15T11:56:17.487Z,2.50
2023-04-15T11:58:46.376Z,2.97
2023-04-15T12:01:14.782Z,2.00
2023-04-15T12:03:44.214Z,2.93
2023-04-15T12:06:19.002Z,2.80
2023-04-15T12:09:04.616Z,2.40
2023-04-15T12:11:38.434Z,2.60
2023-04-15T12:14:08.933Z,2.10
2023-04-15T12:16:47.967Z,1.90
2023-04-15T12:19:20.021Z,2.37
2023-04-15T12:21:49.104Z,2.80
2023-04-15T12:24:23.115Z,2.20
2023-04-15T12:26:53.032Z,2.30
2023-04-15T12:29:22.113Z,1.20
2023-04-15T12:31:52.360Z,1.70
2023-04-15T12:34:27.979Z,1.50
2023-04-15T12:36:56.353Z,1.80
2023-04-15T12:39:27.172Z,1.73
2023-04-15T12:41:56.452Z,2.27
2023-04-15T12:44:24.899Z,2.20
2023-04-15T12:46:54.224Z,2.57
2023-04-15T12:49:22.340Z,1.90
2023-04-15T12:51:51.320Z,1.87
2023-04-15T12:54:19.271Z,2.00
2023-04-15T12:56:49.738Z,2.30
2023-04-15T12:59:18.730Z,1.80
2023-04-15T13:01:47.777Z,1.90
2023-04-15T13:04:16.410Z,2.10
2023-04-15T13:06:44.774Z,2.03
2023-04-15T13:09:12.855Z,2.30
2023-04-15T13:11:40.731Z,2.60
2023-04-15T13:14:11.382Z,2.90
2023-04-15T13:16:39.822Z,2.40
2023-04-15T13:19:07.634Z,2.03
2023-04-15T13:21:36.111Z,2.30
2023-04-15T13:24:07.077Z,2.70
2023-04-15T13:26:35.249Z,2.50
2023-04-15T13:29:03.050Z,2.27
2023-04-15T13:31:32.246Z,2.60
2023-04-15T13:34:00.350Z,2.30
2023-04-15T13:36:28.254Z,2.57
2023-04-15T13:38:56.894Z,2.70
2023-04-15T13:41:24.660Z,2.40
2023-04-15T13:43:52.442Z,2.90
2023-04-15T13:46:20.445Z,2.50
2023-04-15T13:48:49.743Z,2.70
2023-04-15T13:51:17.587Z,2.40
2023-04-15T13:53:45.406Z,2.27
2023-04-15T13:56:13.239Z,2.17
2023-04-15T13:58:41.942Z,1.83
2023-04-15T14:01:10.152Z,2.10
2023-04-15T14:03:38.671Z,2.43
2023-04-15T14:06:08.022Z,2.27
2023-04-15T14:08:35.830Z,2.70
2023-04-15T14:11:03.772Z,1.80
2023-04-15T14:13:31.551Z,1.80
2023-04-15T14:15:59.450Z,1.63
2023-04-15T14:18:27.383Z,1.87
2023-04-15T14:20:55.186Z,2.10
2023-04-15T14:23:24.741Z,2.40
2023-04-15T14:25:52.860Z,1.90
2023-04-15T14:28:20.713Z,1.80
2023-04-15T14:30:48.967Z,2.07
2023-04-15T14:33:16.950Z,1.87
2023-04-15T14:35:44.787Z,1.70
2023-04-15T14:38:12.721Z,2.03
2023-04-15T14:40:42.065Z,2.33
2023-04-15T14:43:09.978Z,2.70
2023-04-15T14:45:42.050Z,2.27
2023-04-15T14:48:12.502Z,2.50
2023-04-15T14:50:40.940Z,2.93
2023-04-15T14:53:08.699Z,2.20
2023-04-15T14:55:36.538Z,2.93
2023-04-15T14:58:05.949Z,2.03
2023-04-15T15:00:33.901Z,3.00
2023-04-15T15:03:01.936Z,2.30
2023-04-15T15:05:30.022Z,2.30
2023-04-15T15:07:57.971Z,3.00
2023-04-15T15:10:32.772Z,1.17
2023-04-15T15:13:14.958Z,2.00
2023-04-15T15:15:43.085Z,1.90
2023-04-15T15:18:11.824Z,2.33
2023-04-15T15:20:39.783Z,1.90
2023-04-15T15:23:07.704Z,2.20
2023-04-15T15:25:35.606Z,2.10
2023-04-15T15:28:03.486Z,2.27
2023-04-15T15:30:32.589Z,2.10
2023-04-15T15:33:00.520Z,2.30
2023-04-15T15:35:28.740Z,2.80
2023-04-15T15:37:56.637Z,2.33
2023-04-15T15:40:24.598Z,2.20
2023-04-15T15:42:52.771Z,2.47
2023-04-15T15:45:20.787Z,2.10
2023-04-15T15:47:50.166Z,2.70
2023-04-15T15:50:18.058Z,2.37
2023-04-15T15:52:45.905Z,2.40
2023-04-15T15:55:13.800Z,2.80
2023-04-15T15:57:41.999Z,2.90
2023-04-15T16:00:12.745Z,2.83
2023-04-15T16:05:13.239Z,2.43
2023-04-15T16:07:41.154Z,2.60
2023-04-15T16:10:10.070Z,2.87
2023-04-15T16:12:37.832Z,2.63
2023-04-15T16:15:06.552Z,2.67
2023-04-15T16:17:34.574Z,2.57
2023-04-15T16:20:05.299Z,2.17
2023-04-15T16:22:35.198Z,2.80
2023-04-15T16:25:02.985Z,2.13
2023-04-15T16:27:30.760Z,2.33
2023-04-15T16:29:58.621Z,2.43
2023-04-15T16:32:27.032Z,2.50
2023-04-15T16:34:55.315Z,2.33
2023-04-15T16:37:23.145Z,2.50
2023-04-15T16:39:52.315Z,3.47
2023-04-15T16:42:20.381Z,2.70
2023-04-15T16:44:48.198Z,2.10
2023-04-15T16:47:15.985Z,2.17
2023-04-15T16:49:43.788Z,1.83
2023-04-15T16:52:11.709Z,1.73
2023-04-15T16:54:41.345Z,1.53
2023-04-15T16:57:10.734Z,1.30
2023-04-15T16:59:39.146Z,1.93
2023-04-15T17:02:07.818Z,1.80
2023-04-15T17:04:35.909Z,1.90
2023-04-15T17:07:04.016Z,2.03
2023-04-15T17:09:31.768Z,1.87
2023-04-15T17:11:59.626Z,1.40
2023-04-15T17:14:28.800Z,1.63
2023-04-15T17:16:56.609Z,1.93
2023-04-15T17:19:24.490Z,1.47
2023-04-15T17:21:54.834Z,1.87
2023-04-15T17:24:22.997Z,1.50
2023-04-15T17:26:50.936Z,1.60
2023-04-15T17:29:18.758Z,1.87
2023-04-15T17:31:47.966Z,1.90
2023-04-15T17:34:16.227Z,1.90
2023-04-15T17:36:44.083Z,1.63
2023-04-15T17:39:13.986Z,1.90
2023-04-15T17:41:41.960Z,1.53
2023-04-15T17:44:09.781Z,1.33
2023-04-15T17:46:37.715Z,1.57
2023-04-15T17:49:07.119Z,1.90
2023-04-15T17:51:35.028Z,1.93
2023-04-15T17:54:02.909Z,1.80
2023-04-15T17:56:30.786Z,1.63
2023-04-15T17:59:00.364Z,2.33
2023-04-15T18:01:28.145Z,2.50
2023-04-15T18:03:56.176Z,2.00
2023-04-15T18:06:27.109Z,2.30
2023-04-15T18:08:54.947Z,2.40
2023-04-15T18:11:22.727Z,1.60
2023-04-15T18:13:50.486Z,1.93
2023-04-15T18:16:18.441Z,2.00
2023-04-15T18:18:46.297Z,1.60
2023-04-15T18:21:14.170Z,1.80
2023-04-15T18:23:43.379Z,1.87
2023-04-15T18:26:11.225Z,1.93
2023-04-15T18:28:39.740Z,2.00
2023-04-15T18:31:07.730Z,1.90
2023-04-15T18:33:35.699Z,2.50
2023-04-15T18:36:03.563Z,2.33
2023-04-15T18:38:31.702Z,2.73
2023-04-15T18:41:00.953Z,2.33
2023-04-15T18:43:28.776Z,2.47
2023-04-15T18:45:56.694Z,1.90
2023-04-15T18:48:24.596Z,2.30
2023-04-15T18:50:53.914Z,2.20
2023-04-15T18:53:21.800Z,1.93
2023-04-15T18:55:49.622Z,2.27
2023-04-15T18:58:18.852Z,2.70
2023-04-15T19:00:46.677Z,2.20
2023-04-15T19:03:14.671Z,2.50
2023-04-15T19:05:42.723Z,2.40
2023-04-15T19:08:11.147Z,2.20
2023-04-15T19:10:39.157Z,2.87
2023-04-15T19:13:06.956Z,2.80
2023-04-15T19:15:36.134Z,2.73
2023-04-15T19:18:05.275Z,2.70
2023-04-15T19:20:36.232Z,2.67
2023-04-15T19:23:06.317Z,2.77
2023-04-15T19:25:34.154Z,2.80
2023-04-15T19:28:02.001Z,2.27
2023-04-15T19:30:32.256Z,2.57
2023-04-15T19:33:01.566Z,2.97
2023-04-15T19:35:29.477Z,2.33
2023-04-15T19:37:57.310Z,2.37
2023-04-15T19:40:25.377Z,2.00
2023-04-15T19:42:53.177Z,3.03
2023-04-15T19:45:20.914Z,3.00
2023-04-15T19:47:48.805Z,2.67
2023-04-15T19:50:19.224Z,3.00
2023-04-15T19:52:46.963Z,2.30
2023-04-15T19:55:14.764Z,2.53
2023-04-15T19:57:42.513Z,3.00
2023-04-15T20:00:11.298Z,2.70
2023-04-15T20:02:39.200Z,2.70
2023-04-15T20:05:09.641Z,3.07
2023-04-15T20:07:42.192Z,2.50
2023-04-15T20:10:13.094Z,3.90
2023-04-15T20:12:49.918Z,2.37
2023-04-15T20:15:20.828Z,3.47
2023-04-15T20:17:50.013Z,2.87
2023-04-15T20:20:18.094Z,3.20
2023-04-15T20:22:47.354Z,3.27
2023-04-15T20:25:15.288Z,2.97
2023-04-15T20:27:43.122Z,2.67
2023-04-15T20:30:11.696Z,2.93
2023-04-15T20:32:39.582Z,3.10
2023-04-15T20:35:08.157Z,2.53
2023-04-15T20:37:40.231Z,2.50
2023-04-15T20:40:11.181Z,2.60
2023-04-15T20:42:39.045Z,1.90
2023-04-15T20:45:07.985Z,2.33
2023-04-15T20:47:35.804Z,2.10
2023-04-15T20:50:03.786Z,1.90
2023-04-15T20:52:31.594Z,2.00
2023-04-15T20:54:59.396Z,1.73
2023-04-15T20:57:30.071Z,2.03
2023-04-15T20:59:57.942Z,1.80
2023-04-15T21:02:26.649Z,2.23
2023-04-15T21:04:54.465Z,1.67
2023-04-15T21:07:22.318Z,1.50
2023-04-15T21:09:50.234Z,2.20
2023-04-15T21:12:18.049Z,1.87
2023-04-15T21:14:47.146Z,2.03
2023-04-15T21:17:14.923Z,1.83
2023-04-15T21:19:43.414Z,1.83
2023-04-15T21:22:11.175Z,2.10
2023-04-15T21:24:38.995Z,1.60
2023-04-15T21:27:07.521Z,2.10
2023-04-15T21:29:35.445Z,1.70
2023-04-15T21:32:04.555Z,1.87
2023-04-15T21:34:32.400Z,1.60
2023-04-15T21:37:00.203Z,1.90
2023-04-15T21:39:27.986Z,1.73
2023-04-15T21:41:55.845Z,1.60
2023-04-15T21:44:23.686Z,2.07
2023-04-15T21:46:51.591Z,2.00
2023-04-15T21:49:21.843Z,1.77
2023-04-15T21:51:50.613Z,1.50
2023-04-15T21:54:18.390Z,1.53
2023-04-15T21:56:47.639Z,1.60
2023-04-15T21:59:15.439Z,1.10
2023-04-15T22:01:43.258Z,1.43
2023-04-15T22:04:11.308Z,1.40
2023-04-15T22:06:40.776Z,1.37
2023-04-15T22:09:08.559Z,1.33
2023-04-15T22:11:36.452Z,1.20
2023-04-15T22:14:05.163Z,1.03
2023-04-15T22:16:32.965Z,1.00
2023-04-15T22:19:02.569Z,1.03
2023-04-15T22:21:30.479Z,1.30
2023-04-15T22:24:32.091Z,1.27
2023-04-15T22:26:47.387Z,1.33
2023-04-15T22:29:15.110Z,1.10
2023-04-15T22:31:43.270Z,1.40
2023-04-15T22:34:11.173Z,1.50
2023-04-15T22:36:38.974Z,1.30
2023-04-15T22:39:08.168Z,1.30
2023-04-15T22:41:36.015Z,1.37
2023-04-15T22:44:03.823Z,1.27
2023-04-15T22:46:31.644Z,1.33
2023-04-15T22:48:59.506Z,1.30
2023-04-15T22:51:28.045Z,1.43
2023-04-15T22:53:56.439Z,1.13
2023-04-15T22:56:25.684Z,1.00
2023-04-15T23:01:28.988Z,0.90
2023-04-15T23:04:04.649Z,1.10
2023-04-15T23:06:36.653Z,0.90
2023-04-15T23:09:04.771Z,1.20
2023-04-15T23:11:33.942Z,1.30
2023-04-15T23:14:01.727Z,0.90
2023-04-15T23:16:29.616Z,1.00
2023-04-15T23:18:57.512Z,1.07
2023-04-15T23:21:27.257Z,1.17
2023-04-15T23:23:55.099Z,1.00
2023-04-15T23:26:22.881Z,1.13
2023-04-15T23:28:51.978Z,1.00
2023-04-15T23:31:19.905Z,1.07
2023-04-15T23:33:47.790Z,1.30
2023-04-15T23:36:16.082Z,0.97
2023-04-15T23:38:43.915Z,1.10
2023-04-15T23:41:12.003Z,0.90
2023-04-15T23:43:39.957Z,1.00
2023-04-15T23:46:09.333Z,1.10
2023-04-15T23:48:37.182Z,1.40
2023-04-15T23:51:05.531Z,0.90
2023-04-15T23:53:33.402Z,1.03
2023-04-15T23:56:01.325Z,1.27
2023-04-15T23:58:29.073Z,1.40
